Flight Track Log - Related Links

Times and Time Zones

All times are in EDT time to prevent confusion due to time zone crossing. See the CSN3422 flight status page for this flight to view local times or setup timezone preferences in your user account.

Time Position Orientation Groundspeed Altitude Reporting Facility
EDT Latitude Longitude Course Direction KTS MPH feet Rate Location/Type
Thu 09:07:00 AM 26.4818 106.9265 117° Southeast  Level Estimated
Thu 09:08:00 AM 26.4250 107.0521 117° Southeast  Level Estimated
Thu 09:09:00 AM 26.3681 107.1777 117° Southeast  Level Estimated
Thu 09:10:00 AM 26.3111 107.3031 117° Southeast  Level Estimated
Thu 09:11:00 AM 26.2540 107.4284 117° Southeast  Level Estimated
Thu 09:12:00 AM 26.1967 107.5536 117° Southeast  Level Estimated
Thu 09:13:00 AM 26.1394 107.6786 117° Southeast  Level Estimated
Thu 09:14:00 AM 26.0819 107.8035 117° Southeast  Level Estimated
Thu 09:15:00 AM 26.0244 107.9283 117° Southeast  Level Estimated
Thu 09:16:00 AM 25.9667 108.0530 117° Southeast  Level Estimated
Thu 09:17:00 AM 25.9090 108.1775 117° Southeast  Level Estimated
Thu 09:18:00 AM 25.8511 108.3020 117° Southeast  Level Estimated
Thu 09:19:00 AM 25.7931 108.4263 117° Southeast  Level Estimated
Thu 09:20:00 AM 25.7350 108.5505 117° Southeast  Level Estimated
Thu 09:21:00 AM 25.6768 108.6745 117° Southeast  Level Estimated
Thu 09:22:00 AM 25.6185 108.7985 118° Southeast  Level Estimated
Thu 09:23:00 AM 25.5601 108.9223 118° Southeast  Level Estimated
Thu 09:24:00 AM 25.5016 109.0460 118° Southeast  Level Estimated
Thu 09:25:00 AM 25.4430 109.1696 118° Southeast  Level Estimated
Thu 09:26:00 AM 25.3843 109.2930 118° Southeast  Level Estimated
Thu 09:27:00 AM 25.3255 109.4164 118° Southeast  Level Estimated
Thu 09:28:00 AM 25.2665 109.5396 118° Southeast  Level Estimated
Thu 09:29:00 AM 25.2075 109.6627 118° Southeast  Level Estimated
Thu 09:30:00 AM 25.1484 109.7857 118° Southeast  Level Estimated
Thu 09:31:00 AM 25.0892 109.9085 118° Southeast  Level Estimated
Thu 09:32:00 AM 25.0298 110.0313 118° Southeast  Level Estimated
Thu 09:33:00 AM 24.9704 110.1539 118° Southeast  Level Estimated
Thu 09:34:00 AM 24.9109 110.2764 118° Southeast  Level Estimated
Thu 09:35:00 AM 24.8512 110.3988 118° Southeast  Level Estimated
Thu 09:36:00 AM 24.7915 110.5211 118° Southeast  Level Estimated
Thu 09:37:00 AM 24.7317 110.6432 118° Southeast  Level Estimated
Thu 09:38:00 AM 24.6717 110.7653 118° Southeast  Level Estimated
Thu 09:39:00 AM 24.6117 110.8872 118° Southeast  Level Estimated
Thu 09:40:00 AM 24.5516 111.0090 118° Southeast  Level Estimated
Thu 09:41:00 AM 24.4914 111.1307 119° Southeast  Level Estimated
Thu 09:42:00 AM 24.4311 111.2522 119° Southeast  Level Estimated
Thu 09:43:00 AM 24.3707 111.3737 119° Southeast  Level Estimated
Thu 09:44:00 AM 24.3102 111.4950 119° Southeast  Level Estimated
Thu 09:45:00 AM 24.2495 111.6162 119° Southeast  Level Estimated
Thu 09:46:00 AM 24.1888 111.7374 119° Southeast  Level Estimated
Thu 09:47:00 AM 24.1280 111.8583 119° Southeast  Level Estimated
Thu 09:48:00 AM 24.0672 111.9792 119° Southeast  Level Estimated
Thu 09:49:00 AM 24.0062 112.1000 119° Southeast  Level Estimated
Thu 09:50:00 AM 23.9451 112.2206 119° Southeast  Level Estimated
Thu 09:51:00 AM 23.8839 112.3411 119° Southeast  Level Estimated
Thu 09:52:00 AM 23.8226 112.4616 119° Southeast  Level Estimated
Thu 09:53:00 AM 23.7613 112.5819 119° Southeast  Level Estimated
Thu 09:54:00 AM 23.6998 112.7020 119° Southeast  Level Estimated
Thu 09:55:00 AM 23.6383 112.8221 119° Southeast  Level Estimated
Thu 09:56:00 AM 23.5766 112.9421 119° Southeast  Level Estimated
Thu 09:57:00 AM 23.5149 113.0619 119° Southeast  Level Estimated
Thu 09:58:00 AM 23.4531 113.1817 119° Southeast  Level Estimated
Thu 09:59:00 AM 23.3924 113.2988 119° Southeast  Level Estimated
Thu 10:00:00 AM 23.3924 113.2988 223° Southwest  Level Estimated
Thu 10:01:00 AM 23.3924 113.2988 223° Southwest  Level Estimated
Thu 10:02:00 AM 23.3924 113.2988 223° Southwest  Level Estimated
Thu 10:03:00 AM 23.3924 113.2988 223° Southwest  Level Estimated
Thu 10:04:00 AM 23.3924 113.2988 223° Southwest  Level Estimated
Thu 10:05:00 AM 23.3924 113.2988 223° Southwest  Level Estimated
Thu 10:06:00 AM 23.3924 113.2988 223° Southwest  Level Estimated
Thu 10:07:00 AM 23.3924 113.2988 223° Southwest  Level Estimated
Thu 10:08:00 AM 23.3924 113.2988 223° Southwest  Level Estimated
Thu 10:09:00 AM 23.3924 113.2988 223° Southwest  Level Estimated
Thu 10:10:00 AM 23.3924 113.2988 223° Southwest  Level Estimated
Thu 10:11:00 AM 23.3924 113.2988 223° Southwest  Level Estimated
Thu 10:12:00 AM 23.3924 113.2988 223° Southwest  Level Estimated
Thu 10:13:00 AM 23.3924 113.2988 223° Southwest  Level Estimated
Thu 10:14:00 AM 23.3924 113.2988 223° Southwest  Level Estimated
Thu 10:15:00 AM 23.3924 113.2988 223° Southwest  Level Estimated

Login

Don't have an account? Register now (free) for customized features, flight alerts, and more!